الصفحة الرئيسية
METAR-TAF:

مطار :

سكاكا, السعودية

مطار الجوف المحلي

دائرة عرض: 29-47N, خط طول: 040-06E, ارتفاع: 689 متر

مراقبة الطقس الحالي

تاريخ ووقت الإصدار 36 دقيقة قبل الساعة 23:00UTC
ريح 6 عقدة من الشرق/الجنوب الشرقي
درجة الحرارة 32°درجة مئوية
الرطوبة 11%
ضغط 1009 hPa
الرؤية 10 كم أو أكثر
الغيوم لا تقل 1500 م ولا وجود لمزنة ركامية السحاب الأسود

METAR: OESK 252300Z 11006KT CAVOK 32/M02 Q1009 NOSIG

زمن: 02:36 (23:36 UTC)

توقعات

تاريخ ووقت الإصدار 36 دقيقة قبل الساعة 23:00UTC
التوقعات صالحة من26 الساعة 00 UTC إلى 27 الساعة 06 UTC
ريح 4 عقدةمن اتجاهات متغيرة
الرؤية: 7000 متر
غيوم قليلة على ارتفاع 4000 قدم
غيوم متفرقة على ارتفاع 9000 قدم
أصبح
من 26 الساعة 06 UTC إلى 26 الساعة 08 UTC
ريح 12 عقدة من الغرب

TAF: OESK 252300Z 2600/2706 VRB04KT 7000 FEW040 SCT090 BECMG 2606/2608 26012KT

METAR-TAF

أرصاد الطقس والتوقعات من أكثر من 4000 مطار (تقارير الطقس للمطار METAR والتنبؤ بالطقس بالمطارTAF).

المحطات المتاحة هي النقط الصفراء والحمراء على الخريطة.

حرك المؤشر فوق النقطة لمعرفة اسم المحطة.

ثم انقر لمعرفة أرصاد وتوقعات الطقس.

لتغيير الخارطة: اضغط على الأزرار الخضراء مع رمز الصليب الأسود للتكبير. على الزر الأخضر مع شرطة للتصغير، أو على الأسهم الخضراء للخرائط المجاورة.


METAR-TAF: